createdAt,value
2019-01-10T00:00:28.501Z,97.30
2019-01-10T00:02:56.505Z,97.30
2019-01-10T00:05:24.500Z,97.30
2019-01-10T00:07:52.416Z,97.20
2019-01-10T00:10:20.363Z,97.20
2019-01-10T00:12:48.356Z,97.40
2019-01-10T00:15:17.048Z,97.40
2019-01-10T00:17:45.009Z,97.50
2019-01-10T00:20:13.078Z,97.60
2019-01-10T00:22:40.994Z,97.60
2019-01-10T00:25:09.554Z,97.70
2019-01-10T00:27:37.471Z,97.80
2019-01-10T00:30:07.421Z,97.80
2019-01-10T00:32:35.340Z,97.90
2019-01-10T00:35:03.490Z,98.10
2019-01-10T00:37:31.472Z,98.40
2019-01-10T00:39:59.365Z,98.60
2019-01-10T00:42:27.261Z,99.00
2019-01-10T00:44:55.220Z,98.80
2019-01-10T00:47:23.389Z,98.90
2019-01-10T00:49:51.795Z,98.90
2019-01-10T00:52:19.856Z,99.00
2019-01-10T00:54:47.809Z,99.10
2019-01-10T00:57:15.753Z,99.10
2019-01-10T00:59:43.644Z,99.10
2019-01-10T01:02:11.599Z,99.10
2019-01-10T01:04:40.369Z,99.00
2019-01-10T01:07:08.678Z,99.00
2019-01-10T01:09:36.565Z,99.10
2019-01-10T01:12:04.676Z,99.20
2019-01-10T01:14:32.815Z,99.20
2019-01-10T01:17:00.688Z,99.20
2019-01-10T01:19:28.653Z,99.20
2019-01-10T01:21:56.616Z,99.20
2019-01-10T01:24:24.489Z,99.20
2019-01-10T01:26:53.209Z,99.20
2019-01-10T01:29:21.096Z,99.10
2019-01-10T01:31:48.977Z,99.10
2019-01-10T01:34:16.873Z,99.00
2019-01-10T01:36:45.085Z,99.00
2019-01-10T01:39:13.033Z,98.90
2019-01-10T01:41:41.300Z,98.80
2019-01-10T01:44:09.177Z,98.70
2019-01-10T01:46:37.122Z,98.60
2019-01-10T01:49:05.381Z,98.60
2019-01-10T01:51:33.284Z,98.50
2019-01-10T01:54:01.186Z,98.40
2019-01-10T01:56:29.151Z,98.40
2019-01-10T01:58:57.032Z,98.40
2019-01-10T02:01:25.001Z,98.30
2019-01-10T02:03:53.327Z,98.30
2019-01-10T02:06:21.189Z,98.20
2019-01-10T02:08:49.448Z,98.20
2019-01-10T02:11:17.407Z,98.20
2019-01-10T02:13:45.375Z,98.10
2019-01-10T02:16:13.390Z,98.10
2019-01-10T02:18:41.341Z,98.10
2019-01-10T02:21:09.679Z,98.10
2019-01-10T02:23:37.626Z,98.00
2019-01-10T02:26:05.743Z,98.00
2019-01-10T02:28:33.684Z,98.00
2019-01-10T02:31:01.583Z,97.90
2019-01-10T02:33:29.476Z,97.90
2019-01-10T02:35:57.507Z,98.00
2019-01-10T02:38:25.771Z,98.00
2019-01-10T02:40:53.737Z,98.10
2019-01-10T02:43:26.523Z,98.10
2019-01-10T02:45:51.590Z,98.20
2019-01-10T02:48:19.808Z,98.20
2019-01-10T02:50:47.734Z,98.20
2019-01-10T02:53:15.609Z,98.20
2019-01-10T02:55:43.493Z,98.50
2019-01-10T02:58:11.485Z,98.20
2019-01-10T03:00:39.439Z,98.30
2019-01-10T03:03:07.481Z,98.30
2019-01-10T03:05:35.458Z,98.20
2019-01-10T03:08:03.345Z,98.30
2019-01-10T03:10:31.284Z,98.20
2019-01-10T03:12:59.162Z,98.20
2019-01-10T03:15:27.416Z,98.20
2019-01-10T03:17:55.302Z,98.20
2019-01-10T03:20:23.273Z,98.20
2019-01-10T03:22:51.421Z,98.20
2019-01-10T03:25:19.395Z,98.20
2019-01-10T03:27:47.337Z,98.60
2019-01-10T03:30:16.344Z,98.30
2019-01-10T03:32:44.659Z,98.30
2019-01-10T03:35:12.621Z,98.40
2019-01-10T03:37:40.524Z,98.40
2019-01-10T03:40:12.547Z,98.80
2019-01-10T03:42:40.526Z,98.40
2019-01-10T03:45:09.707Z,98.30
2019-01-10T03:47:38.400Z,98.30
2019-01-10T03:50:07.084Z,98.20
2019-01-10T03:52:34.984Z,98.30
2019-01-10T03:55:02.929Z,98.20
2019-01-10T03:57:30.804Z,98.30
2019-01-10T03:59:58.968Z,98.30
2019-01-10T04:02:27.127Z,98.20
2019-01-10T04:04:55.079Z,98.30
2019-01-10T04:07:23.045Z,98.30
2019-01-10T04:09:51.017Z,98.30
2019-01-10T04:12:18.960Z,98.30
2019-01-10T04:14:46.866Z,98.30
2019-01-10T04:17:14.897Z,98.30
2019-01-10T04:19:42.942Z,98.40
2019-01-10T04:22:10.854Z,98.40
2019-01-10T04:24:38.737Z,98.40
2019-01-10T04:27:06.950Z,98.50
2019-01-10T04:29:35.043Z,98.50
2019-01-10T04:32:03.021Z,98.50
2019-01-10T04:34:30.928Z,98.60
2019-01-10T04:36:58.814Z,98.80
2019-01-10T04:39:26.849Z,98.60
2019-01-10T04:41:54.748Z,98.60
2019-01-10T04:44:22.630Z,98.60
2019-01-10T04:46:50.593Z,98.60
2019-01-10T04:49:18.597Z,98.60
2019-01-10T04:51:46.491Z,98.60
2019-01-10T04:54:14.661Z,98.70
2019-01-10T04:56:42.538Z,98.70
2019-01-10T04:59:12.108Z,98.70
2019-01-10T05:01:40.278Z,98.70
2019-01-10T05:04:08.241Z,98.40
2019-01-10T05:06:36.120Z,98.80
2019-01-10T05:09:05.585Z,98.70
2019-01-10T05:11:33.495Z,98.60
2019-01-10T05:14:01.411Z,98.70
2019-01-10T05:16:29.370Z,98.70
2019-01-10T05:18:57.260Z,98.70
2019-01-10T05:21:25.493Z,98.60
2019-01-10T05:23:53.372Z,98.60
2019-01-10T05:26:21.336Z,98.60
2019-01-10T05:28:49.247Z,98.60
2019-01-10T05:31:17.151Z,98.60
2019-01-10T05:33:45.036Z,98.60
2019-01-10T05:36:12.985Z,98.60
2019-01-10T05:38:40.975Z,98.60
2019-01-10T05:41:08.964Z,98.60
2019-01-10T05:43:36.865Z,98.50
2019-01-10T05:46:04.816Z,98.40
2019-01-10T05:48:32.702Z,98.30
2019-01-10T05:51:00.651Z,98.30
2019-01-10T05:53:28.560Z,98.30
2019-01-10T05:55:56.457Z,98.30
2019-01-10T05:58:24.342Z,98.20
2019-01-10T06:00:52.200Z,98.20
2019-01-10T06:03:20.137Z,98.20
2019-01-10T06:05:48.052Z,98.20
2019-01-10T06:08:15.941Z,98.20
2019-01-10T06:10:45.701Z,98.20
2019-01-10T06:13:13.587Z,98.20
2019-01-10T06:15:41.681Z,98.20
2019-01-10T06:18:09.572Z,98.20
2019-01-10T06:20:37.444Z,98.00
2019-01-10T06:23:05.413Z,97.90
2019-01-10T06:25:33.571Z,97.90
2019-01-10T06:28:01.854Z,98.00
2019-01-10T06:30:29.757Z,97.90
2019-01-10T06:32:57.657Z,98.00
2019-01-10T06:35:25.668Z,97.70
2019-01-10T06:37:53.623Z,97.90
2019-01-10T06:40:21.907Z,97.60
2019-01-10T06:42:49.787Z,97.50
2019-01-10T06:45:18.032Z,97.80
2019-01-10T06:47:46.015Z,97.40
2019-01-10T06:50:14.584Z,97.40
2019-01-10T06:52:42.556Z,97.50
2019-01-10T06:55:10.549Z,97.50
2019-01-10T06:57:38.749Z,97.50
2019-01-10T07:00:09.257Z,97.40
2019-01-10T07:02:37.240Z,97.40
2019-01-10T07:05:05.214Z,97.50
2019-01-10T07:07:33.121Z,97.50
2019-01-10T07:10:01.074Z,97.50
2019-01-10T07:12:29.012Z,97.50
2019-01-10T07:14:56.906Z,97.60
2019-01-10T07:17:25.070Z,97.60
2019-01-10T07:19:53.001Z,97.60
2019-01-10T07:22:20.969Z,97.60
2019-01-10T07:24:49.802Z,97.60
2019-01-10T07:27:17.767Z,97.70
2019-01-10T07:29:46.897Z,97.70
2019-01-10T07:32:14.808Z,97.80
2019-01-10T07:34:42.691Z,98.00
2019-01-10T07:37:12.979Z,98.10
2019-01-10T07:39:40.456Z,98.60
2019-01-10T07:42:08.626Z,98.30
2019-01-10T07:44:36.685Z,98.30
2019-01-10T07:47:04.643Z,98.20
2019-01-10T07:49:32.555Z,98.20
2019-01-10T07:52:00.628Z,98.20
2019-01-10T07:54:28.885Z,98.20
2019-01-10T07:56:56.768Z,98.10
2019-01-10T07:59:24.652Z,98.00
2019-01-10T08:01:52.635Z,98.10
2019-01-10T08:04:20.513Z,98.10
2019-01-10T08:06:48.509Z,98.00
2019-01-10T08:09:16.697Z,98.00
2019-01-10T08:11:44.582Z,98.10
2019-01-10T08:14:12.576Z,98.30
2019-01-10T08:16:40.480Z,98.20
2019-01-10T08:19:08.432Z,98.20
2019-01-10T08:21:36.383Z,98.30
2019-01-10T08:24:04.356Z,98.30
2019-01-10T08:26:32.317Z,98.30
2019-01-10T08:29:00.208Z,98.10
2019-01-10T08:31:28.176Z,98.10
2019-01-10T08:33:56.082Z,98.00
2019-01-10T08:36:32.145Z,97.90
2019-01-10T08:38:53.701Z,97.70
2019-01-10T08:41:22.485Z,97.70
2019-01-10T08:43:50.435Z,97.60
2019-01-10T08:46:19.010Z,97.70
2019-01-10T08:48:47.051Z,97.70
2019-01-10T08:51:15.638Z,97.80
2019-01-10T08:53:43.701Z,97.80
2019-01-10T08:56:11.634Z,97.80
2019-01-10T08:58:39.532Z,97.70
2019-01-10T09:01:07.424Z,97.70
2019-01-10T09:03:35.365Z,97.70
2019-01-10T09:06:08.226Z,97.60
2019-01-10T09:08:33.585Z,97.60
2019-01-10T09:11:01.560Z,97.50
2019-01-10T09:13:29.544Z,97.40
2019-01-10T09:15:57.669Z,97.20
2019-01-10T09:18:25.778Z,97.10
2019-01-10T09:20:53.892Z,97.00
2019-01-10T09:23:21.806Z,96.60
2019-01-10T09:25:49.691Z,96.60
2019-01-10T09:28:17.564Z,96.60
2019-01-10T09:30:45.542Z,96.50
2019-01-10T09:33:13.499Z,96.20
2019-01-10T09:35:41.474Z,96.10
2019-01-10T09:38:09.353Z,95.90
2019-01-10T09:40:37.302Z,96.30
2019-01-10T09:43:05.197Z,95.40
2019-01-10T09:45:33.108Z,95.00
2019-01-10T09:48:00.990Z,95.00
2019-01-10T09:50:28.983Z,95.00
2019-01-10T09:52:56.927Z,95.00
2019-01-10T09:55:25.180Z,94.70
2019-01-10T09:57:53.160Z,94.70
2019-01-10T10:00:27.899Z,94.50
2019-01-10T10:02:56.048Z,94.20
2019-01-10T10:05:24.000Z,94.30
2019-01-10T10:07:51.966Z,94.40
2019-01-10T10:10:19.934Z,94.40
2019-01-10T10:12:47.892Z,94.30
2019-01-10T10:15:16.612Z,94.50
2019-01-10T10:17:44.496Z,94.70
2019-01-10T10:20:14.779Z,94.80
2019-01-10T10:22:42.920Z,95.00
2019-01-10T10:25:10.888Z,95.00
2019-01-10T10:27:38.897Z,95.20
2019-01-10T10:30:07.992Z,95.20
2019-01-10T10:32:35.969Z,95.30
2019-01-10T10:35:04.750Z,95.20
2019-01-10T10:37:32.671Z,95.20
2019-01-10T10:40:00.622Z,95.20
2019-01-10T10:42:28.585Z,95.20
2019-01-10T10:44:56.465Z,95.30
2019-01-10T10:47:24.435Z,95.30
2019-01-10T10:49:52.352Z,95.30
2019-01-10T10:52:20.308Z,95.20
2019-01-10T10:54:48.223Z,95.30
2019-01-10T10:57:16.168Z,95.50
2019-01-10T10:59:44.181Z,95.50
2019-01-10T11:02:12.364Z,95.40
2019-01-10T11:04:40.417Z,95.20
2019-01-10T11:07:08.308Z,95.20
2019-01-10T11:09:36.277Z,95.20
2019-01-10T11:12:04.454Z,95.20
2019-01-10T11:14:32.332Z,95.20
2019-01-10T11:17:00.223Z,95.20
2019-01-10T11:19:28.121Z,95.30
2019-01-10T11:21:56.101Z,95.10
2019-01-10T11:24:24.085Z,95.00
2019-01-10T11:26:53.542Z,94.70
2019-01-10T11:29:21.742Z,94.80
2019-01-10T11:31:49.942Z,94.80
2019-01-10T11:34:17.808Z,94.60
2019-01-10T11:36:45.709Z,94.60
2019-01-10T11:39:13.610Z,94.30
2019-01-10T11:41:41.506Z,94.30
2019-01-10T11:44:09.477Z,94.60
2019-01-10T11:46:37.385Z,94.60
2019-01-10T11:49:05.273Z,94.90
2019-01-10T11:51:33.261Z,94.40
2019-01-10T11:54:01.159Z,94.20
2019-01-10T11:56:29.041Z,94.00
2019-01-10T11:58:56.942Z,94.00
2019-01-10T12:01:24.828Z,93.60
2019-01-10T12:03:53.105Z,93.30
2019-01-10T12:06:21.060Z,93.30
2019-01-10T12:08:48.961Z,93.30
2019-01-10T12:11:16.849Z,93.20
2019-01-10T12:13:45.045Z,93.10
2019-01-10T12:16:12.941Z,93.00
2019-01-10T12:18:40.883Z,93.10
2019-01-10T12:21:08.849Z,93.10
2019-01-10T12:23:36.740Z,92.90
2019-01-10T12:26:04.637Z,92.40
2019-01-10T12:28:32.528Z,92.50
2019-01-10T12:31:00.435Z,92.30
2019-01-10T12:33:28.437Z,92.50
2019-01-10T12:35:56.445Z,92.80
2019-01-10T12:38:24.346Z,92.90
2019-01-10T12:40:52.496Z,92.80
2019-01-10T12:43:20.535Z,92.90
2019-01-10T12:45:48.536Z,92.70
2019-01-10T12:48:16.497Z,92.80
2019-01-10T12:50:44.516Z,92.20
2019-01-10T12:53:12.566Z,92.60
2019-01-10T12:55:40.573Z,92.70
2019-01-10T12:58:08.742Z,92.50
2019-01-10T13:00:36.874Z,92.30
2019-01-10T13:03:05.047Z,92.30
2019-01-10T13:05:33.018Z,92.30
2019-01-10T13:08:03.703Z,92.10
2019-01-10T13:10:30.642Z,92.10
2019-01-10T13:12:58.687Z,92.10
2019-01-10T13:15:27.296Z,92.50
2019-01-10T13:17:55.276Z,92.60
2019-01-10T13:20:23.443Z,92.50
2019-01-10T13:22:51.470Z,92.20
2019-01-10T13:25:19.713Z,91.80
2019-01-10T13:27:47.984Z,92.20
2019-01-10T13:30:19.977Z,92.40
2019-01-10T13:32:48.056Z,92.50
2019-01-10T13:35:16.067Z,92.60
2019-01-10T13:37:44.446Z,92.60
2019-01-10T13:40:13.113Z,92.70
2019-01-10T13:42:41.182Z,92.60
2019-01-10T13:45:10.049Z,92.50
2019-01-10T13:47:38.132Z,92.70
2019-01-10T13:50:11.377Z,92.80
2019-01-10T13:52:37.199Z,92.90
2019-01-10T13:55:05.815Z,92.70
2019-01-10T13:57:33.994Z,92.40
2019-01-10T14:00:02.158Z,92.50
2019-01-10T14:02:30.214Z,92.70
2019-01-10T14:04:58.357Z,92.80
2019-01-10T14:07:26.494Z,92.70
2019-01-10T14:09:54.468Z,92.80
2019-01-10T14:12:22.405Z,92.80
2019-01-10T14:14:50.682Z,92.70
2019-01-10T14:17:18.671Z,92.20
2019-01-10T14:19:46.575Z,92.00
2019-01-10T14:22:14.561Z,92.50
2019-01-10T14:24:42.711Z,92.50
2019-01-10T14:27:10.933Z,92.60
2019-01-10T14:29:38.973Z,92.70
2019-01-10T14:32:07.076Z,92.70
2019-01-10T14:34:35.085Z,92.80
2019-01-10T14:37:03.205Z,93.20
2019-01-10T14:39:31.276Z,93.10
2019-01-10T14:41:59.443Z,92.90
2019-01-10T14:44:27.572Z,93.10
2019-01-10T14:46:55.898Z,93.20
2019-01-10T14:49:24.097Z,93.40
2019-01-10T14:51:52.196Z,93.90
2019-01-10T14:54:21.461Z,93.60
2019-01-10T14:56:49.523Z,93.50
2019-01-10T14:59:17.703Z,93.50
2019-01-10T15:01:45.736Z,93.70
2019-01-10T15:04:13.714Z,93.70
2019-01-10T15:06:41.928Z,93.70
2019-01-10T15:09:10.146Z,93.60
2019-01-10T15:11:38.166Z,93.70
2019-01-10T15:14:06.302Z,93.90
2019-01-10T15:16:34.349Z,94.00
2019-01-10T15:19:02.350Z,94.20
2019-01-10T15:21:30.219Z,94.30
2019-01-10T15:23:58.126Z,94.70
2019-01-10T15:26:29.641Z,94.60
2019-01-10T15:28:58.179Z,94.60
2019-01-10T15:31:26.273Z,94.80
2019-01-10T15:33:54.236Z,94.90
2019-01-10T15:36:22.521Z,95.00
2019-01-10T15:38:50.492Z,94.90
2019-01-10T15:41:18.460Z,95.00
2019-01-10T15:43:46.466Z,95.00
2019-01-10T15:46:14.442Z,94.90
2019-01-10T15:48:42.433Z,94.90
2019-01-10T15:51:10.423Z,95.10
2019-01-10T15:53:38.460Z,95.10
2019-01-10T15:56:06.452Z,95.10
2019-01-10T15:58:34.386Z,95.10
2019-01-10T16:01:02.368Z,95.10
2019-01-10T16:03:30.240Z,95.00
2019-01-10T16:05:58.237Z,95.10
2019-01-10T16:08:26.117Z,95.10
2019-01-10T16:10:54.040Z,95.10
2019-01-10T16:13:21.966Z,95.10
2019-01-10T16:15:49.980Z,95.10
2019-01-10T16:18:17.891Z,95.10
2019-01-10T16:20:47.845Z,95.10
2019-01-10T16:23:15.808Z,95.10
2019-01-10T16:25:43.749Z,95.30
2019-01-10T16:28:11.671Z,95.40
2019-01-10T16:30:39.599Z,95.60
2019-01-10T16:33:07.480Z,95.90
2019-01-10T16:35:35.760Z,96.00
2019-01-10T16:38:03.744Z,96.10
2019-01-10T16:40:31.769Z,96.30
2019-01-10T16:42:59.719Z,96.30
2019-01-10T16:45:28.780Z,96.10
2019-01-10T16:47:56.718Z,95.90
2019-01-10T16:50:25.373Z,95.80
2019-01-10T16:52:53.316Z,95.50
2019-01-10T16:55:21.197Z,95.30
2019-01-10T16:57:49.208Z,95.20
2019-01-10T17:00:35.484Z,95.20
2019-01-10T17:03:03.897Z,95.30
2019-01-10T17:05:32.185Z,95.30
2019-01-10T17:08:00.098Z,95.40
2019-01-10T17:10:28.166Z,95.40
2019-01-10T17:12:56.144Z,95.60
2019-01-10T17:15:24.144Z,95.70
2019-01-10T17:17:52.334Z,95.50
2019-01-10T17:20:20.948Z,95.30
2019-01-10T17:22:48.820Z,95.20
2019-01-10T17:25:17.142Z,95.10
2019-01-10T17:27:45.140Z,95.20
2019-01-10T17:30:15.204Z,94.90
2019-01-10T17:32:43.212Z,94.30
2019-01-10T17:35:12.757Z,94.30
2019-01-10T17:37:40.917Z,94.10
2019-01-10T17:40:09.808Z,94.10
2019-01-10T17:42:37.773Z,94.20
2019-01-10T17:45:05.984Z,94.20
2019-01-10T17:47:33.943Z,94.40
2019-01-10T17:50:02.185Z,94.50
2019-01-10T17:52:30.185Z,94.60
2019-01-10T17:54:58.065Z,94.40
2019-01-10T17:57:26.032Z,94.40
2019-01-10T17:59:53.908Z,94.60
2019-01-10T18:02:21.878Z,94.20
2019-01-10T18:04:49.955Z,94.10
2019-01-10T18:07:17.833Z,94.00
2019-01-10T18:09:45.736Z,94.20
2019-01-10T18:12:15.090Z,93.60
2019-01-10T18:14:43.191Z,93.90
2019-01-10T18:17:11.188Z,93.80
2019-01-10T18:19:39.325Z,93.80
2019-01-10T18:22:07.268Z,93.70
2019-01-10T18:24:35.274Z,93.20
2019-01-10T18:27:03.724Z,93.00
2019-01-10T18:29:32.939Z,93.20
2019-01-10T18:32:01.161Z,93.30
2019-01-10T18:34:29.181Z,93.40
2019-01-10T18:36:57.136Z,93.20
2019-01-10T18:39:25.047Z,93.30
2019-01-10T18:41:53.041Z,93.50
2019-01-10T18:44:20.930Z,93.60
2019-01-10T18:46:48.848Z,93.80
2019-01-10T18:49:16.752Z,93.90
2019-01-10T18:51:44.659Z,94.10
2019-01-10T18:54:12.569Z,94.20
2019-01-10T18:56:40.437Z,94.20
2019-01-10T18:59:09.009Z,94.40
2019-01-10T19:01:37.521Z,94.40
2019-01-10T19:04:05.573Z,94.40
2019-01-10T19:06:33.645Z,94.60
2019-01-10T19:09:01.666Z,94.80
2019-01-10T19:11:29.555Z,94.90
2019-01-10T19:13:57.481Z,94.60
2019-01-10T19:16:25.650Z,94.60
2019-01-10T19:18:53.618Z,94.80
2019-01-10T19:21:21.531Z,94.90
2019-01-10T19:23:49.642Z,94.90
2019-01-10T19:26:17.546Z,95.10
2019-01-10T19:28:45.855Z,95.30
2019-01-10T19:31:13.735Z,95.30
2019-01-10T19:33:41.690Z,95.40
2019-01-10T19:36:09.606Z,94.90
2019-01-10T19:38:37.565Z,94.80
2019-01-10T19:41:05.564Z,94.70
2019-01-10T19:43:33.495Z,94.50
2019-01-10T19:46:01.433Z,94.30
2019-01-10T19:48:38.513Z,94.50
2019-01-10T19:51:06.784Z,94.60
2019-01-10T19:53:34.961Z,94.80
2019-01-10T19:56:03.222Z,94.90
2019-01-10T19:58:31.214Z,95.20
2019-01-10T20:00:59.121Z,95.40
2019-01-10T20:03:27.064Z,95.30
2019-01-10T20:05:55.021Z,95.20
2019-01-10T20:08:23.497Z,95.40
2019-01-10T20:10:51.451Z,95.60
2019-01-10T20:13:19.333Z,95.80
2019-01-10T20:15:47.247Z,95.60
2019-01-10T20:18:16.433Z,95.70
2019-01-10T20:20:44.890Z,95.50
2019-01-10T20:23:17.461Z,95.50
2019-01-10T20:25:45.399Z,95.60
2019-01-10T20:28:13.375Z,95.70
2019-01-10T20:30:41.260Z,95.80
2019-01-10T20:33:09.311Z,95.90
2019-01-10T20:35:37.263Z,96.00
2019-01-10T20:38:05.571Z,95.90
2019-01-10T20:40:33.517Z,95.80
2019-01-10T20:43:01.476Z,95.80
2019-01-10T20:45:29.463Z,95.90
2019-01-10T20:47:57.345Z,96.00
2019-01-10T20:50:25.223Z,96.00
2019-01-10T20:52:53.167Z,96.10
2019-01-10T20:55:21.392Z,96.30
2019-01-10T20:57:49.356Z,96.30
2019-01-10T21:00:18.373Z,96.30
2019-01-10T21:02:46.721Z,96.40
2019-01-10T21:05:14.933Z,96.50
2019-01-10T21:07:44.556Z,96.50
2019-01-10T21:10:12.679Z,96.60
2019-01-10T21:12:40.648Z,96.60
2019-01-10T21:15:09.958Z,96.60
2019-01-10T21:17:38.024Z,96.50
2019-01-10T21:20:06.299Z,96.60
2019-01-10T21:22:34.394Z,96.60
2019-01-10T21:25:02.335Z,96.60
2019-01-10T21:27:30.324Z,96.70
2019-01-10T21:29:58.231Z,96.70
2019-01-10T21:32:26.124Z,96.80
2019-01-10T21:34:54.099Z,96.80
2019-01-10T21:37:22.076Z,96.90
2019-01-10T21:39:49.989Z,96.90
2019-01-10T21:42:18.992Z,96.90
2019-01-10T21:44:46.881Z,97.10
2019-01-10T21:47:15.448Z,97.10
2019-01-10T21:49:43.907Z,97.00
2019-01-10T21:52:11.886Z,96.90
2019-01-10T21:54:40.839Z,96.90
2019-01-10T21:57:08.752Z,96.80
2019-01-10T21:59:36.627Z,96.70
2019-01-10T22:02:04.644Z,96.70
2019-01-10T22:04:32.599Z,96.80
2019-01-10T22:07:00.577Z,96.80
2019-01-10T22:09:28.832Z,96.80
2019-01-10T22:11:56.732Z,96.80
2019-01-10T22:14:24.635Z,96.90
2019-01-10T22:16:52.641Z,96.90
2019-01-10T22:19:20.547Z,96.90
2019-01-10T22:21:48.429Z,97.00
2019-01-10T22:24:16.341Z,97.00
2019-01-10T22:26:44.219Z,97.10
2019-01-10T22:29:12.426Z,97.10
2019-01-10T22:31:40.399Z,97.10
2019-01-10T22:34:08.269Z,97.10
2019-01-10T22:36:36.249Z,97.00
2019-01-10T22:39:06.386Z,97.00
2019-01-10T22:41:34.276Z,96.90
2019-01-10T22:44:02.336Z,97.00
2019-01-10T22:46:30.242Z,97.00
2019-01-10T22:48:58.416Z,97.00
2019-01-10T22:51:29.629Z,97.10
2019-01-10T22:53:57.741Z,97.10
2019-01-10T22:56:25.974Z,97.10
2019-01-10T22:58:53.948Z,97.20
2019-01-10T23:01:49.481Z,97.20
2019-01-10T23:04:25.997Z,97.10
2019-01-10T23:06:54.248Z,97.20
2019-01-10T23:09:22.383Z,97.20
2019-01-10T23:11:50.356Z,97.20
2019-01-10T23:14:18.323Z,97.20
2019-01-10T23:16:46.241Z,97.20
2019-01-10T23:19:14.532Z,97.30
2019-01-10T23:21:42.837Z,97.30
2019-01-10T23:24:11.647Z,97.40
2019-01-10T23:26:39.550Z,97.40
2019-01-10T23:29:07.448Z,97.30
2019-01-10T23:31:35.329Z,97.40
2019-01-10T23:34:04.690Z,97.40
2019-01-10T23:36:32.684Z,97.50
2019-01-10T23:39:19.178Z,97.50
2019-01-10T23:41:47.753Z,97.40
2019-01-10T23:44:15.744Z,97.30
2019-01-10T23:46:43.777Z,97.30
2019-01-10T23:49:11.688Z,97.30
2019-01-10T23:51:39.663Z,97.40
2019-01-10T23:54:08.225Z,97.50
2019-01-10T23:56:36.273Z,97.50
2019-01-10T23:59:04.291Z,97.40
